sensor_id;sensor_type;location;lat;lon;timestamp;P1;durP1;ratioP1;P2;durP2;ratioP2
21705;SDS011;11014;53.076;18.208;2022-10-18T00:02:06;43.17;;;27.70;;
21705;SDS011;11014;53.076;18.208;2022-10-18T00:04:34;43.67;;;28.70;;
21705;SDS011;11014;53.076;18.208;2022-10-18T00:07:03;44.03;;;28.42;;
21705;SDS011;11014;53.076;18.208;2022-10-18T00:09:31;44.47;;;27.88;;
21705;SDS011;11014;53.076;18.208;2022-10-18T00:12:00;44.33;;;29.23;;
21705;SDS011;11014;53.076;18.208;2022-10-18T00:14:29;47.25;;;28.88;;
21705;SDS011;11014;53.076;18.208;2022-10-18T00:16:57;47.75;;;28.92;;
21705;SDS011;11014;53.076;18.208;2022-10-18T00:19:25;46.70;;;28.77;;
21705;SDS011;11014;53.076;18.208;2022-10-18T00:21:56;46.75;;;28.73;;
21705;SDS011;11014;53.076;18.208;2022-10-18T00:24:24;45.08;;;28.88;;
21705;SDS011;11014;53.076;18.208;2022-10-18T00:26:53;47.72;;;28.80;;
21705;SDS011;11014;53.076;18.208;2022-10-18T00:29:21;50.35;;;29.45;;
21705;SDS011;11014;53.076;18.208;2022-10-18T06:12:45;74.95;;;41.63;;
21705;SDS011;11014;53.076;18.208;2022-10-18T06:15:49;64.03;;;38.67;;
21705;SDS011;11014;53.076;18.208;2022-10-18T06:18:20;54.60;;;35.80;;
21705;SDS011;11014;53.076;18.208;2022-10-18T06:21:10;54.30;;;34.05;;
21705;SDS011;11014;53.076;18.208;2022-10-18T06:23:41;59.08;;;34.33;;
21705;SDS011;11014;53.076;18.208;2022-10-18T06:26:14;52.45;;;33.63;;
21705;SDS011;11014;53.076;18.208;2022-10-18T06:29:04;56.05;;;33.47;;
21705;SDS011;11014;53.076;18.208;2022-10-18T06:32:02;51.03;;;32.50;;
21705;SDS011;11014;53.076;18.208;2022-10-18T06:34:38;54.08;;;32.58;;
21705;SDS011;11014;53.076;18.208;2022-10-18T06:37:12;64.95;;;34.17;;
21705;SDS011;11014;53.076;18.208;2022-10-18T06:39:41;58.50;;;32.95;;
21705;SDS011;11014;53.076;18.208;2022-10-18T06:42:39;61.33;;;33.53;;
21705;SDS011;11014;53.076;18.208;2022-10-18T06:45:28;53.88;;;33.08;;
21705;SDS011;11014;53.076;18.208;2022-10-18T06:47:59;54.85;;;34.65;;
21705;SDS011;11014;53.076;18.208;2022-10-18T06:50:30;51.60;;;33.63;;
21705;SDS011;11014;53.076;18.208;2022-10-18T06:53:03;55.25;;;33.47;;
21705;SDS011;11014;53.076;18.208;2022-10-18T06:56:07;53.25;;;32.85;;
21705;SDS011;11014;53.076;18.208;2022-10-18T06:58:56;55.95;;;33.85;;
21705;SDS011;11014;53.076;18.208;2022-10-18T07:01:27;54.97;;;33.53;;
21705;SDS011;11014;53.076;18.208;2022-10-18T07:04:30;46.33;;;31.42;;
21705;SDS011;11014;53.076;18.208;2022-10-18T07:07:34;48.30;;;31.92;;
21705;SDS011;11014;53.076;18.208;2022-10-18T07:10:23;48.67;;;33.35;;
21705;SDS011;11014;53.076;18.208;2022-10-18T07:13:23;47.78;;;31.27;;
21705;SDS011;11014;53.076;18.208;2022-10-18T07:16:05;51.42;;;32.40;;
21705;SDS011;11014;53.076;18.208;2022-10-18T07:18:49;57.80;;;33.03;;
21705;SDS011;11014;53.076;18.208;2022-10-18T07:21:22;54.28;;;33.67;;
21705;SDS011;11014;53.076;18.208;2022-10-18T07:23:58;54.70;;;31.75;;
21705;SDS011;11014;53.076;18.208;2022-10-18T07:26:49;59.55;;;30.90;;
21705;SDS011;11014;53.076;18.208;2022-10-18T07:29:40;43.33;;;30.75;;
21705;SDS011;11014;53.076;18.208;2022-10-18T07:33:32;47.90;;;31.63;;
21705;SDS011;11014;53.076;18.208;2022-10-18T07:37:00;45.83;;;31.20;;
21705;SDS011;11014;53.076;18.208;2022-10-18T07:40:37;44.95;;;29.52;;
21705;SDS011;11014;53.076;18.208;2022-10-18T07:43:44;47.60;;;30.67;;
21705;SDS011;11014;53.076;18.208;2022-10-18T07:46:57;42.78;;;29.02;;
21705;SDS011;11014;53.076;18.208;2022-10-18T07:49:36;48.58;;;30.48;;
21705;SDS011;11014;53.076;18.208;2022-10-18T08:03:58;42.50;;;30.48;;
21705;SDS011;11014;53.076;18.208;2022-10-18T08:07:34;44.85;;;29.83;;
21705;SDS011;11014;53.076;18.208;2022-10-18T08:11:35;49.92;;;32.80;;
21705;SDS011;11014;53.076;18.208;2022-10-18T08:15:13;40.97;;;28.33;;
21705;SDS011;11014;53.076;18.208;2022-10-18T08:18:33;43.08;;;28.65;;
21705;SDS011;11014;53.076;18.208;2022-10-18T08:21:05;41.53;;;28.83;;
21705;SDS011;11014;53.076;18.208;2022-10-18T08:23:37;40.05;;;28.77;;
21705;SDS011;11014;53.076;18.208;2022-10-18T08:26:08;42.97;;;28.92;;
21705;SDS011;11014;53.076;18.208;2022-10-18T10:26:40;36.90;;;25.63;;
21705;SDS011;11014;53.076;18.208;2022-10-18T10:32:26;35.88;;;22.23;;
21705;SDS011;11014;53.076;18.208;2022-10-18T10:38:27;30.30;;;21.15;;
21705;SDS011;11014;53.076;18.208;2022-10-18T10:41:22;35.47;;;25.30;;
21705;SDS011;11014;53.076;18.208;2022-10-18T10:43:53;41.10;;;30.35;;
21705;SDS011;11014;53.076;18.208;2022-10-18T10:46:27;40.75;;;30.95;;
21705;SDS011;11014;53.076;18.208;2022-10-18T10:49:03;34.63;;;27.10;;
21705;SDS011;11014;53.076;18.208;2022-10-18T10:51:57;37.80;;;24.63;;
21705;SDS011;11014;53.076;18.208;2022-10-18T10:55:01;34.90;;;22.90;;
21705;SDS011;11014;53.076;18.208;2022-10-18T10:58:32;32.05;;;23.67;;
21705;SDS011;11014;53.076;18.208;2022-10-18T11:04:44;32.97;;;22.88;;
21705;SDS011;11014;53.076;18.208;2022-10-18T11:07:53;32.38;;;23.88;;
21705;SDS011;11014;53.076;18.208;2022-10-18T11:21:53;45.38;;;33.03;;
21705;SDS011;11014;53.076;18.208;2022-10-18T11:32:29;20.25;;;14.32;;
21705;SDS011;11014;53.076;18.208;2022-10-18T11:35:54;20.25;;;15.38;;
21705;SDS011;11014;53.076;18.208;2022-10-18T11:59:01;18.95;;;14.00;;
21705;SDS011;11014;53.076;18.208;2022-10-18T12:05:34;18.58;;;14.52;;
21705;SDS011;11014;53.076;18.208;2022-10-18T12:08:11;20.00;;;15.98;;
21705;SDS011;11014;53.076;18.208;2022-10-18T12:10:50;20.17;;;14.88;;
21705;SDS011;11014;53.076;18.208;2022-10-18T12:14:23;19.20;;;14.77;;
21705;SDS011;11014;53.076;18.208;2022-10-18T12:18:04;18.83;;;13.70;;
21705;SDS011;11014;53.076;18.208;2022-10-18T12:20:57;24.33;;;17.38;;
21705;SDS011;11014;53.076;18.208;2022-10-18T12:23:41;23.60;;;16.27;;
21705;SDS011;11014;53.076;18.208;2022-10-18T12:30:41;25.90;;;17.17;;
21705;SDS011;11014;53.076;18.208;2022-10-18T13:09:19;25.75;;;18.77;;
21705;SDS011;11014;53.076;18.208;2022-10-18T13:13:18;29.52;;;18.75;;
21705;SDS011;11014;53.076;18.208;2022-10-18T13:28:52;30.33;;;20.65;;
21705;SDS011;11014;53.076;18.208;2022-10-18T13:32:17;28.00;;;20.33;;
21705;SDS011;11014;53.076;18.208;2022-10-18T13:38:31;31.75;;;21.92;;
21705;SDS011;11014;53.076;18.208;2022-10-18T13:46:20;37.45;;;25.48;;
21705;SDS011;11014;53.076;18.208;2022-10-18T13:52:26;38.10;;;26.80;;
21705;SDS011;11014;53.076;18.208;2022-10-18T14:06:19;62.88;;;38.20;;
21705;SDS011;11014;53.076;18.208;2022-10-18T14:12:24;47.40;;;30.90;;
21705;SDS011;11014;53.076;18.208;2022-10-18T14:15:06;52.05;;;33.17;;
21705;SDS011;11014;53.076;18.208;2022-10-18T14:17:50;133.13;;;70.18;;
21705;SDS011;11014;53.076;18.208;2022-10-18T14:20:29;83.65;;;48.53;;
21705;SDS011;11014;53.076;18.208;2022-10-18T14:23:23;36.03;;;25.42;;
21705;SDS011;11014;53.076;18.208;2022-10-18T14:26:13;35.58;;;24.25;;
21705;SDS011;11014;53.076;18.208;2022-10-18T14:28:47;35.20;;;23.63;;
21705;SDS011;11014;53.076;18.208;2022-10-18T14:31:33;35.80;;;22.67;;
21705;SDS011;11014;53.076;18.208;2022-10-18T14:34:11;43.22;;;25.90;;
21705;SDS011;11014;53.076;18.208;2022-10-18T15:44:26;22.17;;;14.00;;
21705;SDS011;11014;53.076;18.208;2022-10-18T15:47:18;28.30;;;20.65;;
21705;SDS011;11014;53.076;18.208;2022-10-18T15:49:55;30.93;;;20.80;;
21705;SDS011;11014;53.076;18.208;2022-10-18T15:57:46;26.48;;;17.95;;
21705;SDS011;11014;53.076;18.208;2022-10-18T16:00:32;23.27;;;16.92;;
21705;SDS011;11014;53.076;18.208;2022-10-18T16:06:24;28.58;;;19.88;;
21705;SDS011;11014;53.076;18.208;2022-10-18T16:08:55;23.35;;;16.60;;
21705;SDS011;11014;53.076;18.208;2022-10-18T16:11:43;24.23;;;17.83;;
21705;SDS011;11014;53.076;18.208;2022-10-18T16:14:13;24.30;;;16.55;;
21705;SDS011;11014;53.076;18.208;2022-10-18T16:16:42;23.02;;;17.63;;
21705;SDS011;11014;53.076;18.208;2022-10-18T16:19:45;22.42;;;17.05;;
21705;SDS011;11014;53.076;18.208;2022-10-18T16:31:00;25.88;;;17.30;;
21705;SDS011;11014;53.076;18.208;2022-10-18T16:36:56;26.48;;;17.90;;
21705;SDS011;11014;53.076;18.208;2022-10-18T16:39:57;25.38;;;17.77;;
21705;SDS011;11014;53.076;18.208;2022-10-18T16:42:29;26.45;;;17.25;;
21705;SDS011;11014;53.076;18.208;2022-10-18T16:45:08;28.50;;;18.00;;
21705;SDS011;11014;53.076;18.208;2022-10-18T16:47:37;25.77;;;17.77;;
21705;SDS011;11014;53.076;18.208;2022-10-18T16:50:26;28.02;;;16.67;;
21705;SDS011;11014;53.076;18.208;2022-10-18T16:53:15;23.90;;;17.48;;
21705;SDS011;11014;53.076;18.208;2022-10-18T16:55:43;27.65;;;17.90;;
21705;SDS011;11014;53.076;18.208;2022-10-18T16:58:15;25.92;;;18.48;;
21705;SDS011;11014;53.076;18.208;2022-10-18T17:00:44;33.40;;;23.27;;
21705;SDS011;11014;53.076;18.208;2022-10-18T17:03:14;33.60;;;23.63;;
21705;SDS011;11014;53.076;18.208;2022-10-18T17:05:43;31.77;;;19.63;;
21705;SDS011;11014;53.076;18.208;2022-10-18T17:08:15;37.97;;;25.45;;
21705;SDS011;11014;53.076;18.208;2022-10-18T17:10:46;30.50;;;20.27;;
21705;SDS011;11014;53.076;18.208;2022-10-18T17:13:17;30.80;;;19.05;;
21705;SDS011;11014;53.076;18.208;2022-10-18T17:15:46;30.35;;;21.25;;
21705;SDS011;11014;53.076;18.208;2022-10-18T17:18:20;31.13;;;19.50;;
21705;SDS011;11014;53.076;18.208;2022-10-18T17:21:06;29.95;;;19.00;;
21705;SDS011;11014;53.076;18.208;2022-10-18T17:23:37;29.63;;;20.15;;
21705;SDS011;11014;53.076;18.208;2022-10-18T17:26:07;30.50;;;22.33;;
21705;SDS011;11014;53.076;18.208;2022-10-18T17:29:04;35.72;;;24.85;;
21705;SDS011;11014;53.076;18.208;2022-10-18T17:31:35;31.45;;;22.98;;
21705;SDS011;11014;53.076;18.208;2022-10-18T17:34:04;39.10;;;26.67;;
21705;SDS011;11014;53.076;18.208;2022-10-18T17:36:34;29.05;;;19.73;;
21705;SDS011;11014;53.076;18.208;2022-10-18T17:39:03;34.08;;;23.90;;
21705;SDS011;11014;53.076;18.208;2022-10-18T17:41:32;25.50;;;18.50;;
21705;SDS011;11014;53.076;18.208;2022-10-18T17:44:09;35.55;;;22.48;;
21705;SDS011;11014;53.076;18.208;2022-10-18T17:46:38;31.30;;;21.13;;
21705;SDS011;11014;53.076;18.208;2022-10-18T17:49:07;28.73;;;18.85;;
21705;SDS011;11014;53.076;18.208;2022-10-18T17:52:17;24.30;;;17.17;;
21705;SDS011;11014;53.076;18.208;2022-10-18T17:55:00;21.73;;;16.50;;
21705;SDS011;11014;53.076;18.208;2022-10-18T17:57:31;22.85;;;16.20;;
21705;SDS011;11014;53.076;18.208;2022-10-18T18:15:21;30.00;;;18.33;;
21705;SDS011;11014;53.076;18.208;2022-10-18T18:19:17;29.58;;;18.38;;
21705;SDS011;11014;53.076;18.208;2022-10-18T18:33:56;30.92;;;20.45;;
21705;SDS011;11014;53.076;18.208;2022-10-18T18:50:34;31.17;;;19.63;;
21705;SDS011;11014;53.076;18.208;2022-10-18T18:53:45;32.70;;;20.38;;
21705;SDS011;11014;53.076;18.208;2022-10-18T19:01:42;37.28;;;22.75;;
21705;SDS011;11014;53.076;18.208;2022-10-18T19:04:30;39.17;;;23.60;;
21705;SDS011;11014;53.076;18.208;2022-10-18T19:08:29;39.47;;;23.42;;
21705;SDS011;11014;53.076;18.208;2022-10-18T19:11:05;43.45;;;24.95;;
21705;SDS011;11014;53.076;18.208;2022-10-18T19:13:53;44.47;;;27.98;;
21705;SDS011;11014;53.076;18.208;2022-10-18T19:20:31;43.47;;;25.45;;
21705;SDS011;11014;53.076;18.208;2022-10-18T19:28:20;49.83;;;32.00;;
21705;SDS011;11014;53.076;18.208;2022-10-18T19:31:54;58.33;;;35.40;;
21705;SDS011;11014;53.076;18.208;2022-10-18T19:34:40;42.13;;;23.98;;
21705;SDS011;11014;53.076;18.208;2022-10-18T19:37:13;37.17;;;21.63;;
21705;SDS011;11014;53.076;18.208;2022-10-18T19:40:27;32.83;;;20.25;;
21705;SDS011;11014;53.076;18.208;2022-10-18T19:48:23;33.50;;;20.15;;
21705;SDS011;11014;53.076;18.208;2022-10-18T19:56:05;43.42;;;23.77;;
21705;SDS011;11014;53.076;18.208;2022-10-18T20:04:26;42.80;;;24.37;;
21705;SDS011;11014;53.076;18.208;2022-10-18T20:07:40;34.65;;;21.63;;
21705;SDS011;11014;53.076;18.208;2022-10-18T20:13:22;36.10;;;20.40;;
21705;SDS011;11014;53.076;18.208;2022-10-18T20:16:17;34.85;;;18.83;;
21705;SDS011;11014;53.076;18.208;2022-10-18T20:19:03;31.83;;;18.10;;
21705;SDS011;11014;53.076;18.208;2022-10-18T20:21:57;34.33;;;21.17;;
21705;SDS011;11014;53.076;18.208;2022-10-18T20:24:51;43.63;;;28.10;;
21705;SDS011;11014;53.076;18.208;2022-10-18T20:34:32;50.15;;;27.95;;
21705;SDS011;11014;53.076;18.208;2022-10-18T20:37:35;47.03;;;23.77;;
21705;SDS011;11014;53.076;18.208;2022-10-18T20:45:17;32.30;;;15.57;;
21705;SDS011;11014;53.076;18.208;2022-10-18T20:47:53;33.55;;;16.17;;
21705;SDS011;11014;53.076;18.208;2022-10-18T20:50:22;28.90;;;15.95;;
21705;SDS011;11014;53.076;18.208;2022-10-18T20:52:51;31.13;;;15.88;;
21705;SDS011;11014;53.076;18.208;2022-10-18T20:55:21;26.52;;;14.75;;
21705;SDS011;11014;53.076;18.208;2022-10-18T20:57:53;24.73;;;14.57;;
21705;SDS011;11014;53.076;18.208;2022-10-18T21:00:21;26.08;;;13.18;;
21705;SDS011;11014;53.076;18.208;2022-10-18T21:02:50;24.02;;;12.18;;
21705;SDS011;11014;53.076;18.208;2022-10-18T21:05:18;23.75;;;12.70;;
21705;SDS011;11014;53.076;18.208;2022-10-18T21:07:47;21.45;;;11.82;;
21705;SDS011;11014;53.076;18.208;2022-10-18T21:10:15;19.83;;;10.65;;
21705;SDS011;11014;53.076;18.208;2022-10-18T21:12:45;30.45;;;13.57;;
21705;SDS011;11014;53.076;18.208;2022-10-18T21:15:15;21.98;;;10.27;;
21705;SDS011;11014;53.076;18.208;2022-10-18T21:17:48;23.05;;;9.45;;
21705;SDS011;11014;53.076;18.208;2022-10-18T21:20:18;18.73;;;9.65;;
21705;SDS011;11014;53.076;18.208;2022-10-18T21:22:47;22.27;;;9.80;;
21705;SDS011;11014;53.076;18.208;2022-10-18T21:25:15;24.45;;;12.80;;
21705;SDS011;11014;53.076;18.208;2022-10-18T21:27:44;32.50;;;16.05;;
21705;SDS011;11014;53.076;18.208;2022-10-18T21:30:12;26.77;;;14.73;;
21705;SDS011;11014;53.076;18.208;2022-10-18T21:32:45;22.33;;;11.05;;
21705;SDS011;11014;53.076;18.208;2022-10-18T21:35:16;20.65;;;11.88;;
21705;SDS011;11014;53.076;18.208;2022-10-18T21:40:42;19.02;;;11.60;;
21705;SDS011;11014;53.076;18.208;2022-10-18T21:43:12;22.33;;;12.27;;
21705;SDS011;11014;53.076;18.208;2022-10-18T21:45:41;23.92;;;13.13;;
21705;SDS011;11014;53.076;18.208;2022-10-18T21:48:09;22.55;;;11.45;;
21705;SDS011;11014;53.076;18.208;2022-10-18T21:50:38;26.10;;;12.75;;
21705;SDS011;11014;53.076;18.208;2022-10-18T21:53:07;26.23;;;12.02;;
21705;SDS011;11014;53.076;18.208;2022-10-18T21:55:36;20.63;;;11.55;;
21705;SDS011;11014;53.076;18.208;2022-10-18T21:58:05;18.80;;;11.70;;
21705;SDS011;11014;53.076;18.208;2022-10-18T22:00:37;18.88;;;11.10;;
21705;SDS011;11014;53.076;18.208;2022-10-18T22:03:09;22.60;;;10.80;;
21705;SDS011;11014;53.076;18.208;2022-10-18T22:05:39;21.60;;;11.50;;
21705;SDS011;11014;53.076;18.208;2022-10-18T22:08:08;20.75;;;10.65;;
21705;SDS011;11014;53.076;18.208;2022-10-18T22:10:36;22.77;;;11.68;;
21705;SDS011;11014;53.076;18.208;2022-10-18T22:13:05;16.98;;;10.45;;
21705;SDS011;11014;53.076;18.208;2022-10-18T22:15:33;21.00;;;10.98;;
21705;SDS011;11014;53.076;18.208;2022-10-18T22:18:02;20.55;;;10.02;;
21705;SDS011;11014;53.076;18.208;2022-10-18T22:20:30;20.35;;;11.00;;
21705;SDS011;11014;53.076;18.208;2022-10-18T22:22:59;18.38;;;10.68;;
21705;SDS011;11014;53.076;18.208;2022-10-18T22:25:27;18.40;;;10.75;;
21705;SDS011;11014;53.076;18.208;2022-10-18T22:27:56;20.05;;;9.80;;
21705;SDS011;11014;53.076;18.208;2022-10-18T22:30:24;21.50;;;10.23;;
21705;SDS011;11014;53.076;18.208;2022-10-18T22:32:53;21.25;;;10.07;;
21705;SDS011;11014;53.076;18.208;2022-10-18T22:35:22;18.58;;;9.45;;
21705;SDS011;11014;53.076;18.208;2022-10-18T22:37:52;17.63;;;9.50;;
21705;SDS011;11014;53.076;18.208;2022-10-18T22:40:21;17.13;;;9.00;;
21705;SDS011;11014;53.076;18.208;2022-10-18T22:42:52;17.48;;;9.50;;
21705;SDS011;11014;53.076;18.208;2022-10-18T22:45:21;15.35;;;9.05;;
21705;SDS011;11014;53.076;18.208;2022-10-18T22:47:49;12.20;;;8.32;;
21705;SDS011;11014;53.076;18.208;2022-10-18T22:50:18;18.80;;;8.63;;
21705;SDS011;11014;53.076;18.208;2022-10-18T22:52:46;16.45;;;8.80;;
21705;SDS011;11014;53.076;18.208;2022-10-18T22:55:20;21.63;;;9.20;;
21705;SDS011;11014;53.076;18.208;2022-10-18T22:57:49;15.55;;;8.30;;
21705;SDS011;11014;53.076;18.208;2022-10-18T23:00:17;14.15;;;8.52;;
21705;SDS011;11014;53.076;18.208;2022-10-18T23:02:47;19.35;;;8.27;;
21705;SDS011;11014;53.076;18.208;2022-10-18T23:05:16;14.40;;;7.90;;
21705;SDS011;11014;53.076;18.208;2022-10-18T23:07:48;13.95;;;7.88;;
21705;SDS011;11014;53.076;18.208;2022-10-18T23:10:16;16.48;;;7.82;;
21705;SDS011;11014;53.076;18.208;2022-10-18T23:12:45;15.95;;;7.38;;
21705;SDS011;11014;53.076;18.208;2022-10-18T23:15:14;14.45;;;7.30;;
21705;SDS011;11014;53.076;18.208;2022-10-18T23:17:43;14.68;;;6.90;;
21705;SDS011;11014;53.076;18.208;2022-10-18T23:20:11;16.08;;;7.45;;
21705;SDS011;11014;53.076;18.208;2022-10-18T23:22:40;13.15;;;7.60;;
21705;SDS011;11014;53.076;18.208;2022-10-18T23:25:08;15.82;;;7.07;;
21705;SDS011;11014;53.076;18.208;2022-10-18T23:27:37;16.63;;;7.93;;
21705;SDS011;11014;53.076;18.208;2022-10-18T23:30:06;15.13;;;7.18;;
21705;SDS011;11014;53.076;18.208;2022-10-18T23:32:38;14.25;;;6.68;;
21705;SDS011;11014;53.076;18.208;2022-10-18T23:35:07;18.88;;;7.78;;
21705;SDS011;11014;53.076;18.208;2022-10-18T23:37:37;16.83;;;7.90;;
21705;SDS011;11014;53.076;18.208;2022-10-18T23:40:05;14.35;;;7.70;;
21705;SDS011;11014;53.076;18.208;2022-10-18T23:42:35;16.75;;;7.18;;
21705;SDS011;11014;53.076;18.208;2022-10-18T23:45:03;14.82;;;7.32;;
21705;SDS011;11014;53.076;18.208;2022-10-18T23:47:33;11.68;;;7.07;;
21705;SDS011;11014;53.076;18.208;2022-10-18T23:50:02;18.52;;;7.47;;
21705;SDS011;11014;53.076;18.208;2022-10-18T23:52:31;16.30;;;7.63;;
21705;SDS011;11014;53.076;18.208;2022-10-18T23:54:59;18.23;;;7.80;;
21705;SDS011;11014;53.076;18.208;2022-10-18T23:57:28;15.55;;;7.35;;
21705;SDS011;11014;53.076;18.208;2022-10-18T23:59:56;11.68;;;6.72;;
